Time;durP1;ratioP1;P1;durP2;ratioP2;P2;SDS_P1;SDS_P2;PMS_P1;PMS_P2;Temp;Humidity;BMP_temperature;BMP_pressure;BME280_temperature;BME280_humidity;BME280_pressure;Samples;Min_cycle;Max_cycle;Signal;HPM_P1;HPM_P2
2023/08/05 00:00:45;;;;;;;4.10;3.90;;;;;;;;;;5093940;28;20458;-68
2023/08/05 00:03:12;;;;;;;5.13;4.83;;;;;;;;;;5094160;28;20880;-68
2023/08/05 00:05:39;;;;;;;4.83;4.33;;;;;;;;;;5094110;28;20445;-68
2023/08/05 00:08:06;;;;;;;6.00;5.50;;;;;;;;;;5093902;28;20485;-68
2023/08/05 00:10:33;;;;;;;5.53;5.03;;;;;;;;;;5093913;28;20449;-68
2023/08/05 00:13:00;;;;;;;5.17;4.87;;;;;;;;;;5093778;28;20488;-68
2023/08/05 00:15:28;;;;;;;4.80;4.40;;;;;;;;;;5093959;28;20532;-68
2023/08/05 00:17:55;;;;;;;5.13;4.70;;;;;;;;;;5093851;28;20452;-68
2023/08/05 00:20:22;;;;;;;4.67;4.37;;;;;;;;;;5093847;28;20445;-68
2023/08/05 00:22:49;;;;;;;5.13;4.73;;;;;;;;;;5093741;28;20445;-68
2023/08/05 00:25:16;;;;;;;6.97;5.50;;;;;;;;;;5093587;28;20451;-68
2023/08/05 00:27:43;;;;;;;5.10;4.70;;;;;;;;;;5093418;28;20843;-68
2023/08/05 00:30:10;;;;;;;5.83;4.97;;;;;;;;;;5093745;28;20452;-68
2023/08/05 00:32:39;;;;;;;5.03;4.63;;;;;;;;;;5093664;28;20452;-68
2023/08/05 00:35:06;;;;;;;5.40;4.90;;;;;;;;;;5093053;28;20477;-68
2023/08/05 00:37:33;;;;;;;5.97;5.50;;;;;;;;;;5093483;28;20532;-68
2023/08/05 00:40:00;;;;;;;7.13;6.00;;;;;;;;;;5093469;28;20476;-68
2023/08/05 00:42:27;;;;;;;5.83;5.33;;;;;;;;;;5093336;28;20449;-68
2023/08/05 00:44:55;;;;;;;6.10;5.70;;;;;;;;;;5093515;28;20876;-68
2023/08/05 00:47:22;;;;;;;8.60;7.13;;;;;;;;;;5093388;28;20491;-68
2023/08/05 00:49:51;;;;;;;6.30;5.80;;;;;;;;;;5093346;28;20444;-68
2023/08/05 00:52:20;;;;;;;6.80;6.20;;;;;;;;;;5093260;28;20445;-68
2023/08/05 00:54:47;;;;;;;6.57;6.03;;;;;;;;;;5092920;28;20877;-68
2023/08/05 00:57:14;;;;;;;7.37;6.67;;;;;;;;;;5093472;28;21012;-68
2023/08/05 00:59:41;;;;;;;7.17;6.53;;;;;;;;;;5093312;28;20531;-68
2023/08/05 01:02:08;;;;;;;6.83;6.27;;;;;;;;;;5093164;28;20536;-68
2023/08/05 01:04:36;;;;;;;7.43;6.83;;;;;;;;;;5093186;28;20453;-68
2023/08/05 01:07:04;;;;;;;7.00;6.40;;;;;;;;;;5092945;28;20560;-68
2023/08/05 01:09:32;;;;;;;7.33;6.70;;;;;;;;;;5093007;28;20869;-68
2023/08/05 01:11:59;;;;;;;8.37;7.63;;;;;;;;;;5093103;28;20449;-68
2023/08/05 01:14:25;;;;;;;9.17;8.37;;;;;;;;;;5092955;28;21025;-68
2023/08/05 01:16:52;;;;;;;8.33;7.50;;;;;;;;;;5093064;28;20543;-68
2023/08/05 01:19:20;;;;;;;9.13;8.00;;;;;;;;;;5092914;28;20444;-68
2023/08/05 01:21:50;;;;;;;7.97;7.30;;;;;;;;;;5092866;28;20459;-68
2023/08/05 01:24:22;;;;;;;6.77;6.17;;;;;;;;;;5093059;28;20544;-68
2023/08/05 01:26:51;;;;;;;7.20;6.70;;;;;;;;;;5092971;28;20870;-68
2023/08/05 01:29:18;;;;;;;6.90;6.30;;;;;;;;;;5092914;28;20886;-68
2023/08/05 01:31:45;;;;;;;6.73;6.10;;;;;;;;;;5092692;28;20531;-68
2023/08/05 01:34:13;;;;;;;6.23;5.67;;;;;;;;;;5092757;28;20931;-68
2023/08/05 01:36:40;;;;;;;6.50;6.00;;;;;;;;;;5092703;28;20536;-68
2023/08/05 01:39:07;;;;;;;6.10;5.60;;;;;;;;;;5092949;28;20944;-68
2023/08/05 01:41:34;;;;;;;6.27;5.00;;;;;;;;;;5092903;28;20440;-68
2023/08/05 01:44:02;;;;;;;6.77;6.07;;;;;;;;;;5092788;28;20531;-68
2023/08/05 01:46:29;;;;;;;5.80;5.30;;;;;;;;;;5094599;28;20448;-68
2023/08/05 01:48:56;;;;;;;5.50;5.03;;;;;;;;;;5096500;28;20560;-68
2023/08/05 01:51:23;;;;;;;6.30;5.47;;;;;;;;;;5096725;28;20450;-69
2023/08/05 01:53:50;;;;;;;5.30;4.60;;;;;;;;;;5096667;28;20456;-68
2023/08/05 01:56:17;;;;;;;4.70;3.80;;;;;;;;;;5096372;28;20470;-68
2023/08/05 01:58:44;;;;;;;4.63;4.07;;;;;;;;;;5096490;28;20501;-68
2023/08/05 02:01:12;;;;;;;8.20;4.40;;;;;;;;;;5096382;28;20448;-69
2023/08/05 02:03:39;;;;;;;4.07;3.70;;;;;;;;;;5096314;28;20440;-68
2023/08/05 02:06:06;;;;;;;3.83;3.50;;;;;;;;;;5096417;28;21007;-68
2023/08/05 02:08:33;;;;;;;4.23;3.83;;;;;;;;;;5096279;28;20485;-68
2023/08/05 02:11:00;;;;;;;5.50;3.60;;;;;;;;;;5096229;28;20535;-68
2023/08/05 02:13:26;;;;;;;3.43;2.90;;;;;;;;;;5096053;28;21043;-68
2023/08/05 02:15:53;;;;;;;5.63;3.83;;;;;;;;;;5096080;28;20541;-68
2023/08/05 02:18:22;;;;;;;4.90;3.23;;;;;;;;;;5095968;28;20448;-68
2023/08/05 02:20:49;;;;;;;3.97;3.40;;;;;;;;;;5096206;28;20544;-69
2023/08/05 02:23:15;;;;;;;3.57;3.27;;;;;;;;;;5096052;28;20537;-68
2023/08/05 02:25:43;;;;;;;3.20;3.00;;;;;;;;;;5096021;28;20540;-68
2023/08/05 02:28:10;;;;;;;3.50;3.20;;;;;;;;;;5095870;28;21022;-69
2023/08/05 02:30:37;;;;;;;3.67;2.73;;;;;;;;;;5095662;28;21007;-69
2023/08/05 02:33:04;;;;;;;5.73;3.40;;;;;;;;;;5096011;28;20540;-69
2023/08/05 02:35:32;;;;;;;3.03;2.73;;;;;;;;;;5095869;28;20445;-68
2023/08/05 02:37:59;;;;;;;5.10;2.63;;;;;;;;;;5095778;28;20543;-68
2023/08/05 02:40:26;;;;;;;3.87;2.93;;;;;;;;;;5095718;28;20772;-69
2023/08/05 02:42:53;;;;;;;2.63;2.43;;;;;;;;;;5095587;28;20557;-68
2023/08/05 02:45:20;;;;;;;4.30;3.47;;;;;;;;;;5095433;28;20536;-68
2023/08/05 02:47:47;;;;;;;4.10;3.60;;;;;;;;;;5095509;28;20480;-68
2023/08/05 02:50:13;;;;;;;3.50;3.20;;;;;;;;;;5095645;28;20875;-68
2023/08/05 02:52:42;;;;;;;4.27;3.43;;;;;;;;;;5095451;28;20444;-68
2023/08/05 02:55:09;;;;;;;3.33;3.03;;;;;;;;;;5095237;28;20477;-68
2023/08/05 02:57:36;;;;;;;5.80;3.43;;;;;;;;;;5094731;28;20456;-68
2023/08/05 03:00:03;;;;;;;5.10;3.60;;;;;;;;;;5095185;28;20539;-68
2023/08/05 03:02:30;;;;;;;3.20;3.00;;;;;;;;;;5095410;28;20520;-68
2023/08/05 03:04:57;;;;;;;3.67;3.37;;;;;;;;;;5095253;28;20457;-69
2023/08/05 03:07:24;;;;;;;3.90;3.60;;;;;;;;;;5095077;28;20488;-69
2023/08/05 03:09:53;;;;;;;4.77;3.90;;;;;;;;;;5095105;28;20484;-69
2023/08/05 03:12:20;;;;;;;3.47;3.27;;;;;;;;;;5094953;28;20799;-68
2023/08/05 03:14:47;;;;;;;3.53;3.10;;;;;;;;;;5095144;28;20798;-68
2023/08/05 03:17:14;;;;;;;2.53;2.43;;;;;;;;;;5095076;28;20542;-69
2023/08/05 03:19:41;;;;;;;4.63;2.40;;;;;;;;;;5095014;28;20532;-69
2023/08/05 03:22:08;;;;;;;6.57;2.57;;;;;;;;;;5094858;28;20535;-68
2023/08/05 03:24:35;;;;;;;4.20;2.83;;;;;;;;;;5094799;28;20447;-68
2023/08/05 03:27:03;;;;;;;3.97;2.87;;;;;;;;;;5094655;28;20544;-69
2023/08/05 03:29:30;;;;;;;3.00;2.80;;;;;;;;;;5094852;28;20532;-69
2023/08/05 03:31:57;;;;;;;3.33;2.47;;;;;;;;;;5094736;28;20527;-69
2023/08/05 03:34:24;;;;;;;4.87;3.23;;;;;;;;;;5094675;28;20537;-69
2023/08/05 03:36:52;;;;;;;2.80;2.60;;;;;;;;;;5094585;28;20456;-69
2023/08/05 03:39:19;;;;;;;3.20;2.87;;;;;;;;;;5094425;28;20461;-69
2023/08/05 03:41:46;;;;;;;3.40;3.10;;;;;;;;;;5094674;28;20826;-69
2023/08/05 03:44:15;;;;;;;2.83;2.63;;;;;;;;;;5094624;28;20543;-69
2023/08/05 03:46:42;;;;;;;2.97;2.77;;;;;;;;;;5094591;28;20503;-69
2023/08/05 03:49:08;;;;;;;3.70;2.90;;;;;;;;;;5094201;28;21039;-69
2023/08/05 03:51:35;;;;;;;2.40;2.30;;;;;;;;;;5094355;28;20456;-69
2023/08/05 03:54:02;;;;;;;2.73;2.47;;;;;;;;;;5094205;28;20440;-69
2023/08/05 03:56:30;;;;;;;2.80;2.60;;;;;;;;;;5094010;28;20555;-69
2023/08/05 03:58:57;;;;;;;2.93;2.53;;;;;;;;;;5094189;28;20810;-69
2023/08/05 04:01:26;;;;;;;3.33;2.97;;;;;;;;;;5094191;28;20527;-69
2023/08/05 04:03:53;;;;;;;2.77;2.33;;;;;;;;;;5094069;28;20451;-69
2023/08/05 04:06:21;;;;;;;2.43;2.33;;;;;;;;;;5093942;28;20436;-69
2023/08/05 04:08:52;;;;;;;4.00;2.73;;;;;;;;;;5093182;28;20837;-69
2023/08/05 04:11:19;;;;;;;4.23;3.83;;;;;;;;;;5094044;28;20445;-69
2023/08/05 04:13:47;;;;;;;2.93;2.73;;;;;;;;;;5094148;28;20782;-69
2023/08/05 04:16:16;;;;;;;2.63;2.43;;;;;;;;;;5093866;28;20445;-69
2023/08/05 04:18:46;;;;;;;3.10;2.60;;;;;;;;;;5093806;28;20438;-69
2023/08/05 04:21:13;;;;;;;2.90;2.27;;;;;;;;;;5093702;28;20441;-69
2023/08/05 04:23:41;;;;;;;4.50;2.57;;;;;;;;;;5093860;28;20445;-69
2023/08/05 04:26:09;;;;;;;2.80;2.60;;;;;;;;;;5093743;28;20449;-69
2023/08/05 04:28:36;;;;;;;3.33;2.33;;;;;;;;;;5093639;28;20840;-69
2023/08/05 04:31:02;;;;;;;3.07;2.20;;;;;;;;;;5093687;28;20469;-69
2023/08/05 04:33:31;;;;;;;4.63;2.60;;;;;;;;;;5093509;28;20922;-69
2023/08/05 04:36:00;;;;;;;2.77;2.57;;;;;;;;;;5093390;28;20958;-69
2023/08/05 04:38:27;;;;;;;3.03;2.83;;;;;;;;;;5093599;28;20449;-69
2023/08/05 04:40:54;;;;;;;3.40;3.10;;;;;;;;;;5093547;28;20446;-69
2023/08/05 04:43:21;;;;;;;2.80;2.20;;;;;;;;;;5093437;28;20510;-69
2023/08/05 04:45:50;;;;;;;3.40;3.07;;;;;;;;;;5093270;28;20446;-69
2023/08/05 04:48:17;;;;;;;2.87;2.67;;;;;;;;;;5093143;28;20485;-69
2023/08/05 04:50:45;;;;;;;2.33;2.13;;;;;;;;;;5093418;28;20452;-69
2023/08/05 04:53:15;;;;;;;3.00;2.67;;;;;;;;;;5093314;28;20498;-69
2023/08/05 04:55:42;;;;;;;2.87;2.70;;;;;;;;;;5093033;28;20502;-69
2023/08/05 04:58:11;;;;;;;2.60;2.40;;;;;;;;;;5093181;28;20540;-69
2023/08/05 05:00:37;;;;;;;3.00;2.80;;;;;;;;;;5093029;28;20457;-69
2023/08/05 05:03:05;;;;;;;3.50;3.20;;;;;;;;;;5093322;28;20441;-69
2023/08/05 05:05:33;;;;;;;2.80;2.60;;;;;;;;;;5092973;28;20985;-69
2023/08/05 05:08:00;;;;;;;5.57;3.20;;;;;;;;;;5093021;28;20833;-69
2023/08/05 05:10:29;;;;;;;3.17;2.97;;;;;;;;;;5093148;28;20930;-69
2023/08/05 05:12:57;;;;;;;3.80;3.37;;;;;;;;;;5093004;28;20449;-69
2023/08/05 05:15:24;;;;;;;3.93;3.20;;;;;;;;;;5093213;28;20516;-69
2023/08/05 05:17:51;;;;;;;4.93;3.17;;;;;;;;;;5093070;28;20445;-69
2023/08/05 05:20:18;;;;;;;3.67;3.07;;;;;;;;;;5094713;28;20445;-69
2023/08/05 05:22:45;;;;;;;3.17;2.87;;;;;;;;;;5097183;28;20531;-69
2023/08/05 05:25:12;;;;;;;4.60;2.57;;;;;;;;;;5096983;28;20968;-70
2023/08/05 05:27:40;;;;;;;3.40;3.10;;;;;;;;;;5096866;28;20443;-69
2023/08/05 05:30:07;;;;;;;3.60;3.30;;;;;;;;;;5096941;28;20452;-69
2023/08/05 05:32:34;;;;;;;3.33;3.10;;;;;;;;;;5097063;28;20476;-69
2023/08/05 05:35:01;;;;;;;4.27;2.70;;;;;;;;;;5097007;28;20541;-69
2023/08/05 05:37:28;;;;;;;3.47;3.17;;;;;;;;;;5096797;28;20502;-69
2023/08/05 05:39:55;;;;;;;3.67;3.37;;;;;;;;;;5096827;28;20547;-69
2023/08/05 05:42:22;;;;;;;3.00;2.67;;;;;;;;;;5096735;28;20872;-69
2023/08/05 05:44:52;;;;;;;3.33;2.60;;;;;;;;;;5096866;28;20539;-69
2023/08/05 05:47:19;;;;;;;4.60;3.13;;;;;;;;;;5096793;28;20449;-69
2023/08/05 05:49:46;;;;;;;2.40;2.20;;;;;;;;;;5096465;28;21016;-69
2023/08/05 05:52:16;;;;;;;4.93;2.80;;;;;;;;;;5096585;28;20809;-69
2023/08/05 05:54:43;;;;;;;2.70;2.50;;;;;;;;;;5096242;28;20445;-69
2023/08/05 05:57:10;;;;;;;2.90;2.67;;;;;;;;;;5096687;28;20452;-69
2023/08/05 05:59:38;;;;;;;4.77;3.10;;;;;;;;;;5096573;28;20476;-69
2023/08/05 06:02:07;;;;;;;3.87;2.70;;;;;;;;;;5096543;28;20808;-69
2023/08/05 06:04:34;;;;;;;4.57;3.20;;;;;;;;;;5096434;28;20446;-69
2023/08/05 06:07:02;;;;;;;3.80;2.67;;;;;;;;;;5096313;28;20536;-69
2023/08/05 06:09:31;;;;;;;5.37;2.80;;;;;;;;;;5096028;28;20843;-69
2023/08/05 06:11:58;;;;;;;2.60;2.40;;;;;;;;;;5096257;28;20717;-69
2023/08/05 06:14:25;;;;;;;6.47;3.17;;;;;;;;;;5096310;28;20540;-69
2023/08/05 06:16:51;;;;;;;4.07;2.77;;;;;;;;;;5096143;28;20536;-69
2023/08/05 06:19:20;;;;;;;2.87;2.60;;;;;;;;;;5096058;28;20441;-69
2023/08/05 06:21:47;;;;;;;6.30;2.90;;;;;;;;;;5095931;28;20533;-68
2023/08/05 06:24:14;;;;;;;3.10;2.90;;;;;;;;;;5095906;28;20456;-69
2023/08/05 06:26:41;;;;;;;3.57;2.60;;;;;;;;;;5096011;28;20541;-69
2023/08/05 06:29:08;;;;;;;6.10;2.57;;;;;;;;;;5095963;28;20561;-69
2023/08/05 06:31:34;;;;;;;4.53;2.83;;;;;;;;;;5094707;28;21001;-69
2023/08/05 06:34:01;;;;;;;2.67;2.47;;;;;;;;;;5095726;28;20449;-69
2023/08/05 06:36:30;;;;;;;4.13;2.53;;;;;;;;;;5095628;28;20476;-69
2023/08/05 06:38:57;;;;;;;4.03;2.50;;;;;;;;;;5095885;28;20446;-69
2023/08/05 06:41:24;;;;;;;2.50;2.30;;;;;;;;;;5095982;28;20494;-69
2023/08/05 06:43:51;;;;;;;3.60;2.30;;;;;;;;;;5095652;28;20441;-69
2023/08/05 06:46:19;;;;;;;2.67;2.47;;;;;;;;;;5095555;28;20536;-69
2023/08/05 06:48:46;;;;;;;3.57;2.63;;;;;;;;;;5095434;28;20474;-69
2023/08/05 06:51:13;;;;;;;3.93;2.03;;;;;;;;;;5095377;28;20944;-68
2023/08/05 06:53:44;;;;;;;6.30;2.53;;;;;;;;;;5095526;28;20878;-69
2023/08/05 06:56:11;;;;;;;3.33;2.70;;;;;;;;;;5095279;28;20523;-68
2023/08/05 06:58:38;;;;;;;2.90;2.50;;;;;;;;;;5095291;28;20530;-68
2023/08/05 07:01:05;;;;;;;2.80;2.60;;;;;;;;;;5095271;28;20439;-69
2023/08/05 07:03:32;;;;;;;5.23;2.70;;;;;;;;;;5095138;28;20466;-68
2023/08/05 07:05:58;;;;;;;3.00;2.80;;;;;;;;;;5095307;28;20515;-68
2023/08/05 07:08:25;;;;;;;2.30;2.10;;;;;;;;;;5095008;28;20534;-68
2023/08/05 07:10:57;;;;;;;3.47;2.20;;;;;;;;;;5094973;28;21018;-68
2023/08/05 07:13:24;;;;;;;9.77;2.30;;;;;;;;;;5095049;28;20488;-68
2023/08/05 07:15:51;;;;;;;2.20;1.90;;;;;;;;;;5094873;28;20445;-68
2023/08/05 07:18:18;;;;;;;4.00;2.00;;;;;;;;;;5094792;28;20854;-68
2023/08/05 07:20:46;;;;;;;2.70;2.50;;;;;;;;;;5095075;28;20895;-68
2023/08/05 07:23:13;;;;;;;3.90;2.40;;;;;;;;;;5095004;28;20449;-68
2023/08/05 07:25:40;;;;;;;3.00;2.17;;;;;;;;;;5094725;28;20477;-68
2023/08/05 07:28:08;;;;;;;3.90;2.67;;;;;;;;;;5094675;28;20534;-68
2023/08/05 07:30:35;;;;;;;2.93;2.60;;;;;;;;;;5094482;28;20596;-68
2023/08/05 07:33:04;;;;;;;6.10;2.30;;;;;;;;;;5094455;28;20980;-68
2023/08/05 07:35:32;;;;;;;4.00;2.50;;;;;;;;;;5094466;28;20952;-68
2023/08/05 07:38:01;;;;;;;3.37;2.90;;;;;;;;;;5094578;28;20936;-68
2023/08/05 07:40:29;;;;;;;3.80;2.03;;;;;;;;;;5094420;28;20552;-68
2023/08/05 07:42:56;;;;;;;5.60;2.53;;;;;;;;;;5094793;28;20446;-68
2023/08/05 07:45:26;;;;;;;2.80;2.40;;;;;;;;;;5094172;28;20450;-68
2023/08/05 07:47:53;;;;;;;5.60;2.40;;;;;;;;;;5094526;28;20438;-68
2023/08/05 07:50:22;;;;;;;5.07;2.20;;;;;;;;;;5094415;28;20493;-68
2023/08/05 07:52:49;;;;;;;4.17;2.30;;;;;;;;;;5094290;28;20478;-68
2023/08/05 07:55:16;;;;;;;6.70;2.27;;;;;;;;;;5094019;28;20504;-68
2023/08/05 07:57:43;;;;;;;4.33;1.90;;;;;;;;;;5094024;28;20489;-68
2023/08/05 08:00:12;;;;;;;2.43;2.23;;;;;;;;;;5094218;28;20451;-68
2023/08/05 08:02:43;;;;;;;4.50;2.30;;;;;;;;;;5094174;28;20813;-68
2023/08/05 08:05:13;;;;;;;3.33;2.30;;;;;;;;;;5094057;28;20730;-68
2023/08/05 08:07:44;;;;;;;2.47;2.00;;;;;;;;;;5094032;28;20453;-68
2023/08/05 08:10:11;;;;;;;2.03;1.87;;;;;;;;;;5093660;28;20523;-68
2023/08/05 08:12:38;;;;;;;3.97;2.27;;;;;;;;;;5094042;28;20813;-68
2023/08/05 08:15:06;;;;;;;4.90;2.77;;;;;;;;;;5094006;28;20439;-68
2023/08/05 08:17:33;;;;;;;3.77;2.67;;;;;;;;;;5093888;28;20873;-68
2023/08/05 08:20:01;;;;;;;5.33;2.40;;;;;;;;;;5093797;28;20451;-68
2023/08/05 08:22:28;;;;;;;3.53;1.80;;;;;;;;;;5093803;28;20468;-68
2023/08/05 08:24:55;;;;;;;4.23;2.73;;;;;;;;;;5093531;28;20453;-68
2023/08/05 08:27:22;;;;;;;2.57;2.37;;;;;;;;;;5093739;28;20443;-68
2023/08/05 08:29:49;;;;;;;2.87;2.57;;;;;;;;;;5093662;28;20485;-68
2023/08/05 08:32:16;;;;;;;6.13;2.87;;;;;;;;;;5093487;28;21000;-68
2023/08/05 08:34:43;;;;;;;5.27;2.40;;;;;;;;;;5093435;28;20539;-68
2023/08/05 08:37:11;;;;;;;4.20;3.87;;;;;;;;;;5093334;28;20508;-68
2023/08/05 08:39:38;;;;;;;5.33;2.57;;;;;;;;;;5093222;28;20465;-68
2023/08/05 08:42:05;;;;;;;5.10;2.80;;;;;;;;;;5093443;28;20878;-68
2023/08/05 08:44:33;;;;;;;3.23;2.50;;;;;;;;;;5093385;28;20447;-68
2023/08/05 08:47:00;;;;;;;2.57;1.80;;;;;;;;;;5093167;28;20454;-68
2023/08/05 08:49:28;;;;;;;2.97;2.50;;;;;;;;;;5093187;28;20473;-68
2023/08/05 08:51:56;;;;;;;2.97;2.60;;;;;;;;;;5093035;28;20537;-68
2023/08/05 08:54:26;;;;;;;2.00;1.90;;;;;;;;;;5092618;28;20960;-68
2023/08/05 08:56:53;;;;;;;4.53;2.50;;;;;;;;;;5092953;28;20471;-68
2023/08/05 08:59:20;;;;;;;2.40;1.97;;;;;;;;;;5093211;28;20610;-69
2023/08/05 09:01:48;;;;;;;2.73;2.30;;;;;;;;;;5092947;28;20446;-68
2023/08/05 09:04:16;;;;;;;3.13;2.20;;;;;;;;;;5093086;28;20534;-68
2023/08/05 09:06:44;;;;;;;2.87;2.30;;;;;;;;;;5093284;28;20446;-69
2023/08/05 09:09:11;;;;;;;2.80;2.60;;;;;;;;;;5092881;28;20479;-69
2023/08/05 09:11:39;;;;;;;3.23;2.27;;;;;;;;;;5093077;28;20996;-69
2023/08/05 09:14:06;;;;;;;4.53;2.33;;;;;;;;;;5092941;28;20442;-69
2023/08/05 09:16:33;;;;;;;3.40;2.20;;;;;;;;;;5092969;28;20525;-69
2023/08/05 09:19:02;;;;;;;7.60;2.70;;;;;;;;;;5092782;28;20538;-68
2023/08/05 09:21:29;;;;;;;2.70;2.13;;;;;;;;;;5092802;28;20443;-68
2023/08/05 09:23:56;;;;;;;2.17;1.97;;;;;;;;;;5093021;28;20530;-69
2023/08/05 09:26:27;;;;;;;2.50;2.30;;;;;;;;;;5092865;28;20530;-68
2023/08/05 09:28:55;;;;;;;4.37;2.13;;;;;;;;;;5092872;28;20488;-69
2023/08/05 09:31:22;;;;;;;2.30;2.20;;;;;;;;;;5092632;28;20443;-68
2023/08/05 09:33:50;;;;;;;2.80;1.90;;;;;;;;;;5092839;28;20447;-68
2023/08/05 09:36:20;;;;;;;3.40;1.90;;;;;;;;;;5092877;28;20450;-68
2023/08/05 09:38:47;;;;;;;2.77;2.10;;;;;;;;;;5092995;28;20438;-69
2023/08/05 09:41:14;;;;;;;3.13;1.97;;;;;;;;;;5092687;28;20946;-68
2023/08/05 09:43:45;;;;;;;3.87;1.80;;;;;;;;;;5092744;28;20443;-68
2023/08/05 09:46:13;;;;;;;1.70;1.57;;;;;;;;;;5092629;28;20512;-68
2023/08/05 09:48:42;;;;;;;2.83;1.73;;;;;;;;;;5092760;28;20486;-69
2023/08/05 09:51:10;;;;;;;4.10;2.30;;;;;;;;;;5092703;28;20486;-68
2023/08/05 09:53:37;;;;;;;2.70;1.77;;;;;;;;;;5092715;28;20779;-69
2023/08/05 09:56:06;;;;;;;3.00;2.20;;;;;;;;;;5092544;28;20532;-68
2023/08/05 09:58:35;;;;;;;3.40;1.97;;;;;;;;;;5092388;28;20471;-68
2023/08/05 10:01:02;;;;;;;3.07;2.47;;;;;;;;;;5092647;28;20443;-69
2023/08/05 10:03:31;;;;;;;3.67;2.03;;;;;;;;;;5092559;28;20447;-68
2023/08/05 10:05:58;;;;;;;2.53;2.00;;;;;;;;;;5092515;28;20539;-68
2023/08/05 10:08:25;;;;;;;3.90;2.10;;;;;;;;;;5095898;28;20443;-68
2023/08/05 10:10:52;;;;;;;2.60;2.37;;;;;;;;;;5096127;28;20485;-69
2023/08/05 10:13:20;;;;;;;3.10;2.30;;;;;;;;;;5096266;28;20530;-68
2023/08/05 10:15:48;;;;;;;2.20;2.00;;;;;;;;;;5096167;28;20492;-68
2023/08/05 10:18:16;;;;;;;2.40;2.20;;;;;;;;;;5096198;28;20537;-69
2023/08/05 10:20:45;;;;;;;2.20;1.80;;;;;;;;;;5096006;28;20527;-69
2023/08/05 10:23:14;;;;;;;1.90;1.67;;;;;;;;;;5095975;28;20475;-68
2023/08/05 10:25:42;;;;;;;3.37;2.00;;;;;;;;;;5095866;28;20533;-69
2023/08/05 10:28:09;;;;;;;4.63;1.87;;;;;;;;;;5095990;28;20477;-68
2023/08/05 10:30:43;;;;;;;2.67;2.47;;;;;;;;;;5095889;28;20565;-68
2023/08/05 10:33:10;;;;;;;2.10;2.00;;;;;;;;;;5095776;28;20994;-68
2023/08/05 10:35:39;;;;;;;4.40;1.90;;;;;;;;;;5095764;28;20439;-68
2023/08/05 10:38:11;;;;;;;2.80;1.83;;;;;;;;;;5095556;28;20471;-69
2023/08/05 10:40:39;;;;;;;2.33;1.70;;;;;;;;;;5095753;28;20926;-69
2023/08/05 10:43:06;;;;;;;3.73;2.00;;;;;;;;;;5095771;28;20450;-68
2023/08/05 10:45:34;;;;;;;2.77;2.20;;;;;;;;;;5095594;28;20504;-68
2023/08/05 10:48:01;;;;;;;3.10;2.20;;;;;;;;;;5095948;28;20833;-68
2023/08/05 10:50:35;;;;;;;2.03;1.70;;;;;;;;;;5095435;28;20518;-68
2023/08/05 10:53:04;;;;;;;1.97;1.77;;;;;;;;;;5095633;28;20449;-68
2023/08/05 10:55:45;;;;;;;2.60;1.80;;;;;;;;;;5095195;28;20561;-68
2023/08/05 10:58:12;;;;;;;3.90;2.17;;;;;;;;;;5095302;28;20526;-68
2023/08/05 11:00:40;;;;;;;4.07;2.00;;;;;;;;;;5095212;28;20443;-68
2023/08/05 11:03:30;;;;;;;11.90;10.80;;;;;;;;;;5095106;28;20450;-68
2023/08/05 11:06:00;;;;;;;3.67;3.37;;;;;;;;;;5070438;28;20526;-68
2023/08/05 11:08:27;;;;;;;5.10;4.57;;;;;;;;;;5095164;28;20534;-68
2023/08/05 11:10:57;;;;;;;4.20;3.80;;;;;;;;;;5094874;28;20981;-68
2023/08/05 11:13:24;;;;;;;2.37;2.27;;;;;;;;;;5095021;28;20522;-68
2023/08/05 11:16:02;;;;;;;2.60;2.03;;;;;;;;;;5095181;28;20447;-68
2023/08/05 11:18:29;;;;;;;3.57;1.90;;;;;;;;;;5094607;28;20443;-68
2023/08/05 11:20:56;;;;;;;3.60;2.63;;;;;;;;;;5094872;28;20443;-68
2023/08/05 11:23:24;;;;;;;4.90;4.40;;;;;;;;;;5094839;28;20445;-68
2023/08/05 11:25:51;;;;;;;11.63;10.53;;;;;;;;;;5094747;28;20529;-69
2023/08/05 11:28:20;;;;;;;2.83;2.13;;;;;;;;;;5094627;28;20439;-68
2023/08/05 11:30:47;;;;;;;4.30;3.90;;;;;;;;;;5094779;28;20482;-68
2023/08/05 11:33:14;;;;;;;7.90;7.20;;;;;;;;;;5094589;28;20864;-68
2023/08/05 11:35:45;;;;;;;2.07;1.93;;;;;;;;;;5094689;28;20892;-68
2023/08/05 11:38:12;;;;;;;2.20;2.10;;;;;;;;;;5094512;28;20454;-68
2023/08/05 11:40:42;;;;;;;1.93;1.70;;;;;;;;;;5094884;28;20930;-68
2023/08/05 11:43:09;;;;;;;7.93;7.20;;;;;;;;;;5094574;28;20447;-68
2023/08/05 11:45:40;;;;;;;2.70;1.87;;;;;;;;;;5094484;28;20449;-68
2023/08/05 11:48:08;;;;;;;2.83;1.90;;;;;;;;;;5094536;28;20809;-69
2023/08/05 11:50:35;;;;;;;2.10;1.70;;;;;;;;;;5094247;28;20832;-69
2023/08/05 11:53:05;;;;;;;2.20;1.40;;;;;;;;;;5094186;28;20447;-69
2023/08/05 11:55:36;;;;;;;1.80;1.60;;;;;;;;;;5094130;28;20471;-68
2023/08/05 11:58:04;;;;;;;2.60;1.80;;;;;;;;;;5094316;28;20530;-68
2023/08/05 12:00:31;;;;;;;2.00;1.90;;;;;;;;;;5094421;28;20440;-68
2023/08/05 12:03:01;;;;;;;4.90;2.73;;;;;;;;;;5094048;28;20817;-68
2023/08/05 12:05:28;;;;;;;3.53;1.90;;;;;;;;;;5094483;28;20435;-68
2023/08/05 12:07:55;;;;;;;3.57;1.77;;;;;;;;;;5093665;28;20977;-68
2023/08/05 12:10:22;;;;;;;1.83;1.67;;;;;;;;;;5093889;28;20482;-68
2023/08/05 12:12:50;;;;;;;2.57;2.17;;;;;;;;;;5093934;28;20530;-68
2023/08/05 12:15:17;;;;;;;1.40;1.30;;;;;;;;;;5093971;28;20496;-68
2023/08/05 12:17:48;;;;;;;3.70;2.20;;;;;;;;;;5093735;28;20542;-68
2023/08/05 12:20:18;;;;;;;2.60;1.90;;;;;;;;;;5093503;28;20534;-68
2023/08/05 12:22:45;;;;;;;3.30;1.90;;;;;;;;;;5093982;28;20780;-68
2023/08/05 12:25:12;;;;;;;2.13;1.50;;;;;;;;;;5093624;28;21049;-68
2023/08/05 12:27:39;;;;;;;1.73;1.43;;;;;;;;;;5093718;28;20450;-68
2023/08/05 12:30:06;;;;;;;1.70;1.60;;;;;;;;;;5092663;28;20557;-68
2023/08/05 12:32:34;;;;;;;1.80;1.70;;;;;;;;;;5093513;28;20534;-68
2023/08/05 12:35:01;;;;;;;3.53;2.00;;;;;;;;;;5093441;28;20453;-68
2023/08/05 12:37:30;;;;;;;2.37;1.70;;;;;;;;;;5093605;28;20443;-68
2023/08/05 12:39:57;;;;;;;2.67;1.90;;;;;;;;;;5093551;28;20477;-68
2023/08/05 12:42:23;;;;;;;2.27;2.13;;;;;;;;;;5093720;28;20472;-68
2023/08/05 12:44:50;;;;;;;2.03;1.73;;;;;;;;;;5093280;28;20535;-68
2023/08/05 12:47:18;;;;;;;1.87;1.77;;;;;;;;;;5092999;28;20458;-68
2023/08/05 12:49:45;;;;;;;2.10;1.83;;;;;;;;;;5093286;28;20470;-68
2023/08/05 12:52:12;;;;;;;2.63;1.93;;;;;;;;;;5093141;28;20557;-68
2023/08/05 12:54:40;;;;;;;2.70;2.07;;;;;;;;;;5093018;28;20573;-68
2023/08/05 12:57:07;;;;;;;1.70;1.60;;;;;;;;;;5093221;28;20881;-68
2023/08/05 12:59:34;;;;;;;3.03;2.00;;;;;;;;;;5093064;28;20549;-68
2023/08/05 13:02:01;;;;;;;3.00;1.70;;;;;;;;;;5092919;28;20941;-68
2023/08/05 13:04:28;;;;;;;2.80;1.90;;;;;;;;;;5093190;28;20474;-68
2023/08/05 13:06:55;;;;;;;3.10;1.80;;;;;;;;;;5093104;28;20478;-68
2023/08/05 13:09:22;;;;;;;1.40;1.30;;;;;;;;;;5093163;28;20477;-68
2023/08/05 13:11:50;;;;;;;3.03;1.33;;;;;;;;;;5092973;28;20511;-68
2023/08/05 13:14:17;;;;;;;2.70;2.50;;;;;;;;;;5092903;28;20443;-68
2023/08/05 13:16:44;;;;;;;2.23;1.60;;;;;;;;;;5093198;28;20538;-68
2023/08/05 13:19:11;;;;;;;1.67;1.50;;;;;;;;;;5093073;28;20478;-68
2023/08/05 13:21:38;;;;;;;2.30;1.73;;;;;;;;;;5093012;28;20447;-68
2023/08/05 13:24:05;;;;;;;3.80;1.70;;;;;;;;;;5092982;28;20534;-68
2023/08/05 13:26:32;;;;;;;3.97;2.00;;;;;;;;;;5092853;28;20443;-69
2023/08/05 13:29:01;;;;;;;2.07;1.40;;;;;;;;;;5092647;28;20447;-68
2023/08/05 13:31:28;;;;;;;1.77;1.47;;;;;;;;;;5092659;28;20483;-68
2023/08/05 13:33:55;;;;;;;1.80;1.53;;;;;;;;;;5092645;28;20953;-68
2023/08/05 13:36:22;;;;;;;3.73;1.70;;;;;;;;;;5092685;28;20934;-68
2023/08/05 13:38:49;;;;;;;2.17;1.80;;;;;;;;;;5092831;28;20532;-68
2023/08/05 13:41:17;;;;;;;3.70;1.80;;;;;;;;;;5094476;28;20473;-68
2023/08/05 13:43:43;;;;;;;1.97;1.77;;;;;;;;;;5096657;28;20806;-68
2023/08/05 13:46:12;;;;;;;2.33;1.90;;;;;;;;;;5096861;28;20529;-68
2023/08/05 13:48:39;;;;;;;5.50;1.70;;;;;;;;;;5096686;28;20538;-68
2023/08/05 13:51:06;;;;;;;2.30;1.90;;;;;;;;;;5096545;28;20518;-68
2023/08/05 13:53:33;;;;;;;2.17;1.97;;;;;;;;;;5096656;28;20451;-68
2023/08/05 13:56:01;;;;;;;1.77;1.67;;;;;;;;;;5096265;28;20813;-68
2023/08/05 13:58:28;;;;;;;1.97;1.20;;;;;;;;;;5096727;28;20930;-68
2023/08/05 14:00:56;;;;;;;1.43;1.30;;;;;;;;;;5096462;28;20486;-68
2023/08/05 14:03:24;;;;;;;3.03;2.10;;;;;;;;;;5096500;28;20798;-68
2023/08/05 14:05:52;;;;;;;3.60;2.10;;;;;;;;;;5096349;28;20471;-68
2023/08/05 14:08:19;;;;;;;3.00;2.00;;;;;;;;;;5096315;28;20457;-68
2023/08/05 14:10:48;;;;;;;3.73;2.03;;;;;;;;;;5096089;28;20474;-68
2023/08/05 14:13:15;;;;;;;3.47;1.50;;;;;;;;;;5096346;28;20468;-68
2023/08/05 14:15:42;;;;;;;3.40;2.40;;;;;;;;;;5096201;28;20447;-68
2023/08/05 14:18:09;;;;;;;2.07;1.97;;;;;;;;;;5096217;28;20836;-68
2023/08/05 14:20:37;;;;;;;2.37;1.43;;;;;;;;;;5096154;28;20853;-68
2023/08/05 14:23:04;;;;;;;1.40;1.30;;;;;;;;;;5095832;28;20534;-68
2023/08/05 14:25:31;;;;;;;1.80;1.70;;;;;;;;;;5096128;28;20534;-68
2023/08/05 14:27:59;;;;;;;1.73;1.63;;;;;;;;;;5096006;28;20531;-68
2023/08/05 14:30:26;;;;;;;4.13;1.50;;;;;;;;;;5095900;28;20533;-68
2023/08/05 14:32:53;;;;;;;1.57;1.40;;;;;;;;;;5095698;28;20910;-68
2023/08/05 14:35:20;;;;;;;2.13;1.60;;;;;;;;;;5095756;28;20446;-68
2023/08/05 14:37:48;;;;;;;4.30;1.80;;;;;;;;;;5095597;28;20482;-68
2023/08/05 14:40:15;;;;;;;1.90;1.80;;;;;;;;;;5095831;28;20443;-68
2023/08/05 14:42:42;;;;;;;1.90;1.43;;;;;;;;;;5095801;28;20473;-68
2023/08/05 14:45:09;;;;;;;4.50;2.67;;;;;;;;;;5095647;28;20443;-68